sensor_id;sensor_type;location;lat;lon;timestamp;pressure;altitude;pressure_sealevel;temperature
63158;BMP280;49381;49.338;8.794;2022-12-29T00:00:59;99758.66;;;7.49
63158;BMP280;49381;49.338;8.794;2022-12-29T00:02:59;99764.56;;;7.52
63158;BMP280;49381;49.338;8.794;2022-12-29T00:05:01;99755.31;;;7.52
63158;BMP280;49381;49.338;8.794;2022-12-29T00:07:02;99752.75;;;7.50
63158;BMP280;49381;49.338;8.794;2022-12-29T00:09:02;99744.41;;;7.52
63158;BMP280;49381;49.338;8.794;2022-12-29T00:11:03;99745.19;;;7.47
63158;BMP280;49381;49.338;8.794;2022-12-29T00:13:03;99743.50;;;7.49
63158;BMP280;49381;49.338;8.794;2022-12-29T00:15:04;99741.00;;;7.50
63158;BMP280;49381;49.338;8.794;2022-12-29T00:17:05;99748.59;;;7.54
63158;BMP280;49381;49.338;8.794;2022-12-29T00:19:05;99744.44;;;7.56
63158;BMP280;49381;49.338;8.794;2022-12-29T00:21:15;99741.94;;;7.56
63158;BMP280;49381;49.338;8.794;2022-12-29T00:23:15;99739.41;;;7.56
63158;BMP280;49381;49.338;8.794;2022-12-29T00:25:16;99741.09;;;7.59
63158;BMP280;49381;49.338;8.794;2022-12-29T00:27:16;99745.28;;;7.58
63158;BMP280;49381;49.338;8.794;2022-12-29T00:29:17;99740.25;;;7.60
63158;BMP280;49381;49.338;8.794;2022-12-29T00:31:17;99733.56;;;7.62
63158;BMP280;49381;49.338;8.794;2022-12-29T00:33:18;99728.47;;;7.57
63158;BMP280;49381;49.338;8.794;2022-12-29T00:35:25;99726.78;;;7.59
63158;BMP280;49381;49.338;8.794;2022-12-29T00:37:27;99731.00;;;7.60
63158;BMP280;49381;49.338;8.794;2022-12-29T00:39:28;99737.72;;;7.58
63158;BMP280;49381;49.338;8.794;2022-12-29T00:41:28;99723.44;;;7.57
63158;BMP280;49381;49.338;8.794;2022-12-29T00:43:28;99727.63;;;7.58
63158;BMP280;49381;49.338;8.794;2022-12-29T00:45:29;99734.34;;;7.56
63158;BMP280;49381;49.338;8.794;2022-12-29T00:47:29;99727.69;;;7.61
63158;BMP280;49381;49.338;8.794;2022-12-29T00:49:30;99736.88;;;7.58
63158;BMP280;49381;49.338;8.794;2022-12-29T00:51:30;99746.97;;;7.59
63158;BMP280;49381;49.338;8.794;2022-12-29T00:53:32;99747.81;;;7.60
63158;BMP280;49381;49.338;8.794;2022-12-29T00:55:36;99726.84;;;7.62
63158;BMP280;49381;49.338;8.794;2022-12-29T00:57:36;99728.53;;;7.63
63158;BMP280;49381;49.338;8.794;2022-12-29T00:59:37;99738.59;;;7.63
63158;BMP280;49381;49.338;8.794;2022-12-29T01:01:39;99733.59;;;7.66
63158;BMP280;49381;49.338;8.794;2022-12-29T01:03:39;99734.44;;;7.70
63158;BMP280;49381;49.338;8.794;2022-12-29T01:05:39;99740.38;;;7.73
63158;BMP280;49381;49.338;8.794;2022-12-29T01:07:40;99747.09;;;7.74
63158;BMP280;49381;49.338;8.794;2022-12-29T01:09:41;99753.03;;;7.77
63158;BMP280;49381;49.338;8.794;2022-12-29T01:11:42;99750.53;;;7.82
63158;BMP280;49381;49.338;8.794;2022-12-29T01:13:42;99760.72;;;7.94
63158;BMP280;49381;49.338;8.794;2022-12-29T01:15:49;99752.38;;;8.02
63158;BMP280;49381;49.338;8.794;2022-12-29T01:17:49;99761.78;;;8.18
63158;BMP280;49381;49.338;8.794;2022-12-29T01:19:49;99754.28;;;8.28
63158;BMP280;49381;49.338;8.794;2022-12-29T01:21:50;99763.56;;;8.32
63158;BMP280;49381;49.338;8.794;2022-12-29T01:23:50;99752.66;;;8.39
63158;BMP280;49381;49.338;8.794;2022-12-29T01:25:52;99750.19;;;8.49
63158;BMP280;49381;49.338;8.794;2022-12-29T01:27:52;99752.78;;;8.56
63158;BMP280;49381;49.338;8.794;2022-12-29T01:29:53;99746.97;;;8.79
63158;BMP280;49381;49.338;8.794;2022-12-29T01:31:53;99741.13;;;8.94
63158;BMP280;49381;49.338;8.794;2022-12-29T01:33:53;99741.19;;;9.08
63158;BMP280;49381;49.338;8.794;2022-12-29T01:35:54;99737.81;;;9.12
63158;BMP280;49381;49.338;8.794;2022-12-29T01:37:54;99738.69;;;9.19
63158;BMP280;49381;49.338;8.794;2022-12-29T01:39:54;99740.41;;;9.30
63158;BMP280;49381;49.338;8.794;2022-12-29T01:41:56;99736.19;;;9.38
63158;BMP280;49381;49.338;8.794;2022-12-29T01:43:58;99745.50;;;9.45
63158;BMP280;49381;49.338;8.794;2022-12-29T01:45:59;99735.38;;;9.52
63158;BMP280;49381;49.338;8.794;2022-12-29T01:48:01;99737.91;;;9.56
63158;BMP280;49381;49.338;8.794;2022-12-29T01:50:07;99740.47;;;9.61
63158;BMP280;49381;49.338;8.794;2022-12-29T01:52:09;99734.53;;;9.63
63158;BMP280;49381;49.338;8.794;2022-12-29T01:54:12;99739.63;;;9.66
63158;BMP280;49381;49.338;8.794;2022-12-29T01:56:16;99739.59;;;9.69
63158;BMP280;49381;49.338;8.794;2022-12-29T01:58:21;99724.44;;;9.72
63158;BMP280;49381;49.338;8.794;2022-12-29T02:00:22;99725.28;;;9.73
63158;BMP280;49381;49.338;8.794;2022-12-29T02:02:23;99733.69;;;9.83
63158;BMP280;49381;49.338;8.794;2022-12-29T02:04:24;99732.91;;;9.86
63158;BMP280;49381;49.338;8.794;2022-12-29T02:06:29;99738.81;;;9.88
63158;BMP280;49381;49.338;8.794;2022-12-29T02:08:32;99741.34;;;9.91
63158;BMP280;49381;49.338;8.794;2022-12-29T02:10:34;99730.34;;;9.93
63158;BMP280;49381;49.338;8.794;2022-12-29T02:12:35;99730.34;;;9.98
63158;BMP280;49381;49.338;8.794;2022-12-29T02:14:36;99731.22;;;9.95
63158;BMP280;49381;49.338;8.794;2022-12-29T02:16:46;99733.75;;;10.01
63158;BMP280;49381;49.338;8.794;2022-12-29T02:18:58;99730.38;;;10.05
63158;BMP280;49381;49.338;8.794;2022-12-29T02:21:23;99723.59;;;10.07
63158;BMP280;49381;49.338;8.794;2022-12-29T02:23:42;99726.13;;;10.08
63158;BMP280;49381;49.338;8.794;2022-12-29T02:28:30;99715.16;;;10.11
63158;BMP280;49381;49.338;8.794;2022-12-29T02:30:47;99720.22;;;10.11
63158;BMP280;49381;49.338;8.794;2022-12-29T02:32:52;99717.69;;;10.12
63158;BMP280;49381;49.338;8.794;2022-12-29T02:34:58;99711.78;;;10.16
63158;BMP280;49381;49.338;8.794;2022-12-29T02:37:06;99716.84;;;10.21
63158;BMP280;49381;49.338;8.794;2022-12-29T02:39:22;99722.75;;;10.21
63158;BMP280;49381;49.338;8.794;2022-12-29T02:41:29;99722.75;;;10.20
63158;BMP280;49381;49.338;8.794;2022-12-29T02:43:37;99728.66;;;10.20
63158;BMP280;49381;49.338;8.794;2022-12-29T02:45:43;99719.34;;;10.18
63158;BMP280;49381;49.338;8.794;2022-12-29T02:47:49;99724.44;;;10.16
63158;BMP280;49381;49.338;8.794;2022-12-29T02:49:58;99713.47;;;10.13
63158;BMP280;49381;49.338;8.794;2022-12-29T02:52:01;99708.41;;;10.08
63158;BMP280;49381;49.338;8.794;2022-12-29T02:54:03;99716.00;;;10.07
63158;BMP280;49381;49.338;8.794;2022-12-29T02:56:04;99703.34;;;10.07
63158;BMP280;49381;49.338;8.794;2022-12-29T02:58:15;99716.00;;;10.07
63158;BMP280;49381;49.338;8.794;2022-12-29T03:00:16;99716.03;;;10.04
63158;BMP280;49381;49.338;8.794;2022-12-29T03:02:30;99721.06;;;10.03
63158;BMP280;49381;49.338;8.794;2022-12-29T03:04:39;99710.97;;;10.00
63158;BMP280;49381;49.338;8.794;2022-12-29T03:06:52;99698.31;;;10.00
63158;BMP280;49381;49.338;8.794;2022-12-29T03:08:59;99700.84;;;10.00
63158;BMP280;49381;49.338;8.794;2022-12-29T03:11:03;99699.13;;;10.02
63158;BMP280;49381;49.338;8.794;2022-12-29T03:13:12;99702.53;;;9.99
63158;BMP280;49381;49.338;8.794;2022-12-29T03:15:19;99698.28;;;9.98
63158;BMP280;49381;49.338;8.794;2022-12-29T03:17:25;99695.75;;;9.94
63158;BMP280;49381;49.338;8.794;2022-12-29T03:19:28;99700.84;;;9.95
63158;BMP280;49381;49.338;8.794;2022-12-29T03:21:35;99693.25;;;9.92
63158;BMP280;49381;49.338;8.794;2022-12-29T03:23:38;99689.00;;;9.93
63158;BMP280;49381;49.338;8.794;2022-12-29T03:25:43;99691.56;;;9.91
63158;BMP280;49381;49.338;8.794;2022-12-29T03:27:47;99682.28;;;9.95
63158;BMP280;49381;49.338;8.794;2022-12-29T03:29:51;99680.56;;;9.97
63158;BMP280;49381;49.338;8.794;2022-12-29T03:31:53;99689.84;;;9.93
63158;BMP280;49381;49.338;8.794;2022-12-29T03:33:56;99688.19;;;9.95
63158;BMP280;49381;49.338;8.794;2022-12-29T03:35:59;99673.81;;;9.99
63158;BMP280;49381;49.338;8.794;2022-12-29T03:38:06;99672.13;;;9.98
63158;BMP280;49381;49.338;8.794;2022-12-29T03:40:08;99676.38;;;10.00
63158;BMP280;49381;49.338;8.794;2022-12-29T03:42:12;99671.28;;;10.02
63158;BMP280;49381;49.338;8.794;2022-12-29T03:44:13;99667.06;;;9.98
63158;BMP280;49381;49.338;8.794;2022-12-29T03:46:14;99662.88;;;10.00
63158;BMP280;49381;49.338;8.794;2022-12-29T03:48:14;99660.31;;;10.03
63158;BMP280;49381;49.338;8.794;2022-12-29T03:50:15;99659.47;;;10.09
63158;BMP280;49381;49.338;8.794;2022-12-29T03:52:15;99654.38;;;10.15
63158;BMP280;49381;49.338;8.794;2022-12-29T03:54:17;99652.69;;;10.20
63158;BMP280;49381;49.338;8.794;2022-12-29T03:56:17;99651.00;;;10.19
63158;BMP280;49381;49.338;8.794;2022-12-29T03:58:17;99656.88;;;10.23
63158;BMP280;49381;49.338;8.794;2022-12-29T04:00:18;99633.22;;;10.28
63158;BMP280;49381;49.338;8.794;2022-12-29T04:02:18;99635.75;;;10.28
63158;BMP280;49381;49.338;8.794;2022-12-29T04:04:18;99629.00;;;10.34
63158;BMP280;49381;49.338;8.794;2022-12-29T04:06:19;99636.53;;;10.43
63158;BMP280;49381;49.338;8.794;2022-12-29T04:08:19;99624.72;;;10.47
63158;BMP280;49381;49.338;8.794;2022-12-29T04:10:21;99627.25;;;10.50
63158;BMP280;49381;49.338;8.794;2022-12-29T04:12:21;99626.38;;;10.53
63158;BMP280;49381;49.338;8.794;2022-12-29T04:14:21;99629.78;;;10.54
63158;BMP280;49381;49.338;8.794;2022-12-29T04:16:22;99623.00;;;10.56
63158;BMP280;49381;49.338;8.794;2022-12-29T04:18:22;99629.75;;;10.55
63158;BMP280;49381;49.338;8.794;2022-12-29T04:20:22;99631.41;;;10.62
63158;BMP280;49381;49.338;8.794;2022-12-29T04:22:23;99623.78;;;10.62
63158;BMP280;49381;49.338;8.794;2022-12-29T04:24:23;99613.63;;;10.68
63158;BMP280;49381;49.338;8.794;2022-12-29T04:26:25;99613.63;;;10.70
63158;BMP280;49381;49.338;8.794;2022-12-29T04:28:25;99626.28;;;10.68
63158;BMP280;49381;49.338;8.794;2022-12-29T04:30:26;99618.66;;;10.73
63158;BMP280;49381;49.338;8.794;2022-12-29T04:32:26;99616.94;;;10.78
63158;BMP280;49381;49.338;8.794;2022-12-29T04:34:26;99618.66;;;10.80
63158;BMP280;49381;49.338;8.794;2022-12-29T04:36:27;99611.84;;;10.86
63158;BMP280;49381;49.338;8.794;2022-12-29T04:38:27;99615.22;;;10.87
63158;BMP280;49381;49.338;8.794;2022-12-29T04:40:28;99612.72;;;10.84
63158;BMP280;49381;49.338;8.794;2022-12-29T04:42:29;99611.84;;;10.89
63158;BMP280;49381;49.338;8.794;2022-12-29T04:44:30;99613.47;;;10.93
63158;BMP280;49381;49.338;8.794;2022-12-29T04:46:30;99619.41;;;10.94
63158;BMP280;49381;49.338;8.794;2022-12-29T04:48:31;99621.06;;;10.98
63158;BMP280;49381;49.338;8.794;2022-12-29T04:50:31;99621.06;;;10.98
63158;BMP280;49381;49.338;8.794;2022-12-29T04:52:31;99619.34;;;11.01
63158;BMP280;49381;49.338;8.794;2022-12-29T04:54:32;99614.28;;;11.01
63158;BMP280;49381;49.338;8.794;2022-12-29T04:56:32;99622.72;;;11.04
63158;BMP280;49381;49.338;8.794;2022-12-29T04:58:35;99609.97;;;11.12
63158;BMP280;49381;49.338;8.794;2022-12-29T05:00:36;99624.34;;;11.11
63158;BMP280;49381;49.338;8.794;2022-12-29T05:02:36;99622.66;;;11.10
63158;BMP280;49381;49.338;8.794;2022-12-29T05:04:37;99626.94;;;11.08
63158;BMP280;49381;49.338;8.794;2022-12-29T05:06:37;99623.53;;;11.09
63158;BMP280;49381;49.338;8.794;2022-12-29T05:08:38;99615.03;;;11.12
63158;BMP280;49381;49.338;8.794;2022-12-29T05:10:38;99613.34;;;11.12
63158;BMP280;49381;49.338;8.794;2022-12-29T05:12:39;99620.06;;;11.18
63158;BMP280;49381;49.338;8.794;2022-12-29T05:14:41;99621.75;;;11.20
63158;BMP280;49381;49.338;8.794;2022-12-29T05:16:41;99633.59;;;11.18
63158;BMP280;49381;49.338;8.794;2022-12-29T05:18:41;99623.47;;;11.17
63158;BMP280;49381;49.338;8.794;2022-12-29T05:20:42;99629.38;;;11.20
63158;BMP280;49381;49.338;8.794;2022-12-29T05:22:42;99627.69;;;11.19
63158;BMP280;49381;49.338;8.794;2022-12-29T05:24:42;99631.91;;;11.17
63158;BMP280;49381;49.338;8.794;2022-12-29T05:26:43;99628.53;;;11.20
63158;BMP280;49381;49.338;8.794;2022-12-29T05:28:43;99624.28;;;11.20
63158;BMP280;49381;49.338;8.794;2022-12-29T05:30:48;99629.34;;;11.25
63158;BMP280;49381;49.338;8.794;2022-12-29T05:32:48;99619.19;;;11.23
63158;BMP280;49381;49.338;8.794;2022-12-29T05:34:48;99620.84;;;11.29
63158;BMP280;49381;49.338;8.794;2022-12-29T05:36:49;99619.13;;;11.30
63158;BMP280;49381;49.338;8.794;2022-12-29T05:38:49;99618.25;;;11.34
63158;BMP280;49381;49.338;8.794;2022-12-29T05:40:49;99614.03;;;11.35
63158;BMP280;49381;49.338;8.794;2022-12-29T05:42:50;99612.34;;;11.37
63158;BMP280;49381;49.338;8.794;2022-12-29T05:44:50;99603.03;;;11.39
63158;BMP280;49381;49.338;8.794;2022-12-29T05:46:52;99610.66;;;11.39
63158;BMP280;49381;49.338;8.794;2022-12-29T05:48:52;99610.59;;;11.42
63158;BMP280;49381;49.338;8.794;2022-12-29T05:50:52;99611.47;;;11.44
63158;BMP280;49381;49.338;8.794;2022-12-29T05:52:53;99607.22;;;11.44
63158;BMP280;49381;49.338;8.794;2022-12-29T05:54:53;99617.34;;;11.46
63158;BMP280;49381;49.338;8.794;2022-12-29T05:56:53;99619.84;;;11.52
63158;BMP280;49381;49.338;8.794;2022-12-29T05:58:54;99614.75;;;11.52
63158;BMP280;49381;49.338;8.794;2022-12-29T06:00:54;99616.41;;;11.58
63158;BMP280;49381;49.338;8.794;2022-12-29T06:02:56;99618.06;;;11.58
63158;BMP280;49381;49.338;8.794;2022-12-29T06:04:56;99619.78;;;11.59
63158;BMP280;49381;49.338;8.794;2022-12-29T06:06:56;99611.31;;;11.60
63158;BMP280;49381;49.338;8.794;2022-12-29T06:08:57;99620.63;;;11.59
63158;BMP280;49381;49.338;8.794;2022-12-29T06:10:57;99630.78;;;11.59
63158;BMP280;49381;49.338;8.794;2022-12-29T06:12:57;99614.72;;;11.59
63158;BMP280;49381;49.338;8.794;2022-12-29T06:14:58;99614.66;;;11.63
63158;BMP280;49381;49.338;8.794;2022-12-29T06:16:58;99610.44;;;11.61
63158;BMP280;49381;49.338;8.794;2022-12-29T06:19:00;99608.72;;;11.64
63158;BMP280;49381;49.338;8.794;2022-12-29T06:21:01;99603.66;;;11.64
63158;BMP280;49381;49.338;8.794;2022-12-29T06:23:01;99596.00;;;11.67
63158;BMP280;49381;49.338;8.794;2022-12-29T06:25:02;99591.72;;;11.72
63158;BMP280;49381;49.338;8.794;2022-12-29T06:27:02;99591.72;;;11.72
63158;BMP280;49381;49.338;8.794;2022-12-29T06:29:03;99604.41;;;11.74
63158;BMP280;49381;49.338;8.794;2022-12-29T06:31:03;99606.94;;;11.75
63158;BMP280;49381;49.338;8.794;2022-12-29T06:33:04;99590.00;;;11.76
63158;BMP280;49381;49.338;8.794;2022-12-29T06:35:06;99589.19;;;11.74
63158;BMP280;49381;49.338;8.794;2022-12-29T06:37:06;99592.56;;;11.74
63158;BMP280;49381;49.338;8.794;2022-12-29T06:39:07;99594.22;;;11.78
63158;BMP280;49381;49.338;8.794;2022-12-29T06:41:07;99596.75;;;11.78
63158;BMP280;49381;49.338;8.794;2022-12-29T06:43:07;99588.28;;;11.76
63158;BMP280;49381;49.338;8.794;2022-12-29T06:45:08;99596.69;;;11.84
63158;BMP280;49381;49.338;8.794;2022-12-29T06:47:09;99579.78;;;11.83
63158;BMP280;49381;49.338;8.794;2022-12-29T06:49:09;99594.09;;;11.87
63158;BMP280;49381;49.338;8.794;2022-12-29T06:51:11;99587.34;;;11.86
63158;BMP280;49381;49.338;8.794;2022-12-29T06:53:12;99573.84;;;11.84
63158;BMP280;49381;49.338;8.794;2022-12-29T06:55:12;99581.44;;;11.85
63158;BMP280;49381;49.338;8.794;2022-12-29T06:57:12;99574.66;;;11.86
63158;BMP280;49381;49.338;8.794;2022-12-29T06:59:13;99578.84;;;11.90
63158;BMP280;49381;49.338;8.794;2022-12-29T07:01:13;99571.25;;;11.87
63158;BMP280;49381;49.338;8.794;2022-12-29T07:03:13;99578.00;;;11.91
63158;BMP280;49381;49.338;8.794;2022-12-29T07:05:14;99577.97;;;11.92
63158;BMP280;49381;49.338;8.794;2022-12-29T07:07:15;99575.44;;;11.92
63158;BMP280;49381;49.338;8.794;2022-12-29T07:09:16;99580.50;;;11.92
63158;BMP280;49381;49.338;8.794;2022-12-29T07:11:16;99568.69;;;11.90
63158;BMP280;49381;49.338;8.794;2022-12-29T07:13:16;99579.72;;;11.89
63158;BMP280;49381;49.338;8.794;2022-12-29T07:15:17;99596.59;;;11.94
63158;BMP280;49381;49.338;8.794;2022-12-29T07:17:17;99588.13;;;11.94
63158;BMP280;49381;49.338;8.794;2022-12-29T07:19:18;99588.94;;;11.96
63158;BMP280;49381;49.338;8.794;2022-12-29T07:21:18;99591.44;;;11.97
63158;BMP280;49381;49.338;8.794;2022-12-29T07:23:20;99593.13;;;12.00
63158;BMP280;49381;49.338;8.794;2022-12-29T07:25:20;99590.53;;;12.03
63158;BMP280;49381;49.338;8.794;2022-12-29T07:27:20;99599.88;;;12.01
63158;BMP280;49381;49.338;8.794;2022-12-29T07:29:21;99590.47;;;12.10
63158;BMP280;49381;49.338;8.794;2022-12-29T07:31:22;99600.59;;;12.14
63158;BMP280;49381;49.338;8.794;2022-12-29T07:33:22;99592.19;;;12.08
63158;BMP280;49381;49.338;8.794;2022-12-29T07:35:23;99596.38;;;12.12
63158;BMP280;49381;49.338;8.794;2022-12-29T07:37:23;99605.63;;;12.19
63158;BMP280;49381;49.338;8.794;2022-12-29T07:39:25;99603.06;;;12.20
63158;BMP280;49381;49.338;8.794;2022-12-29T07:41:25;99612.41;;;12.17
63158;BMP280;49381;49.338;8.794;2022-12-29T07:43:25;99607.31;;;12.17
63158;BMP280;49381;49.338;8.794;2022-12-29T07:45:26;99603.97;;;12.15
63158;BMP280;49381;49.338;8.794;2022-12-29T07:47:26;99606.47;;;12.19
63158;BMP280;49381;49.338;8.794;2022-12-29T07:49:26;99613.22;;;12.17
63158;BMP280;49381;49.338;8.794;2022-12-29T07:51:27;99609.03;;;12.18
63158;BMP280;49381;49.338;8.794;2022-12-29T07:53:27;99602.25;;;12.18
63158;BMP280;49381;49.338;8.794;2022-12-29T07:55:29;99604.75;;;12.20
63158;BMP280;49381;49.338;8.794;2022-12-29T07:57:29;99604.72;;;12.24
63158;BMP280;49381;49.338;8.794;2022-12-29T07:59:30;99603.81;;;12.27
63158;BMP280;49381;49.338;8.794;2022-12-29T08:01:30;99614.88;;;12.24
63158;BMP280;49381;49.338;8.794;2022-12-29T08:03:30;99615.72;;;12.23
63158;BMP280;49381;49.338;8.794;2022-12-29T08:05:31;99609.78;;;12.24
63158;BMP280;49381;49.338;8.794;2022-12-29T08:07:32;99608.03;;;12.29
63158;BMP280;49381;49.338;8.794;2022-12-29T08:09:32;99615.66;;;12.28
63158;BMP280;49381;49.338;8.794;2022-12-29T08:11:34;99619.06;;;12.28
63158;BMP280;49381;49.338;8.794;2022-12-29T08:13:34;99616.47;;;12.31
63158;BMP280;49381;49.338;8.794;2022-12-29T08:15:36;99616.53;;;12.28
63158;BMP280;49381;49.338;8.794;2022-12-29T08:17:37;99631.75;;;12.27
63158;BMP280;49381;49.338;8.794;2022-12-29T08:19:38;99625.72;;;12.36
63158;BMP280;49381;49.338;8.794;2022-12-29T08:21:38;99624.88;;;12.36
63158;BMP280;49381;49.338;8.794;2022-12-29T08:23:39;99630.84;;;12.32
63158;BMP280;49381;49.338;8.794;2022-12-29T08:25:39;99634.22;;;12.34
63158;BMP280;49381;49.338;8.794;2022-12-29T08:27:41;99633.38;;;12.35
63158;BMP280;49381;49.338;8.794;2022-12-29T08:29:41;99636.72;;;12.37
63158;BMP280;49381;49.338;8.794;2022-12-29T08:31:42;99647.75;;;12.36
63158;BMP280;49381;49.338;8.794;2022-12-29T08:33:42;99640.09;;;12.39
63158;BMP280;49381;49.338;8.794;2022-12-29T08:35:42;99645.19;;;12.39
63158;BMP280;49381;49.338;8.794;2022-12-29T08:37:43;99639.25;;;12.38
63158;BMP280;49381;49.338;8.794;2022-12-29T08:39:45;99651.19;;;12.33
63158;BMP280;49381;49.338;8.794;2022-12-29T08:41:45;99646.88;;;12.37
63158;BMP280;49381;49.338;8.794;2022-12-29T08:43:47;99651.13;;;12.38
63158;BMP280;49381;49.338;8.794;2022-12-29T08:45:48;99650.25;;;12.39
63158;BMP280;49381;49.338;8.794;2022-12-29T08:47:48;99654.56;;;12.32
63158;BMP280;49381;49.338;8.794;2022-12-29T08:49:48;99658.75;;;12.38
63158;BMP280;49381;49.338;8.794;2022-12-29T08:51:50;99651.06;;;12.42
63158;BMP280;49381;49.338;8.794;2022-12-29T08:53:51;99662.03;;;12.46
63158;BMP280;49381;49.338;8.794;2022-12-29T08:55:56;99658.69;;;12.44
63158;BMP280;49381;49.338;8.794;2022-12-29T08:57:56;99656.13;;;12.42
63158;BMP280;49381;49.338;8.794;2022-12-29T08:59:58;99656.13;;;12.42
63158;BMP280;49381;49.338;8.794;2022-12-29T09:01:58;99657.84;;;12.43
63158;BMP280;49381;49.338;8.794;2022-12-29T09:03:59;99656.16;;;12.41
63158;BMP280;49381;49.338;8.794;2022-12-29T09:05:59;99654.44;;;12.44
63158;BMP280;49381;49.338;8.794;2022-12-29T09:07:59;99655.25;;;12.46
63158;BMP280;49381;49.338;8.794;2022-12-29T09:10:00;99662.91;;;12.45
63158;BMP280;49381;49.338;8.794;2022-12-29T09:12:00;99662.06;;;12.44
63158;BMP280;49381;49.338;8.794;2022-12-29T09:14:00;99665.44;;;12.45
63158;BMP280;49381;49.338;8.794;2022-12-29T09:16:03;99663.72;;;12.47
63158;BMP280;49381;49.338;8.794;2022-12-29T09:18:03;99662.88;;;12.48
63158;BMP280;49381;49.338;8.794;2022-12-29T09:20:07;99669.59;;;12.50
63158;BMP280;49381;49.338;8.794;2022-12-29T09:22:07;99660.31;;;12.46
63158;BMP280;49381;49.338;8.794;2022-12-29T09:24:08;99667.09;;;12.49
63158;BMP280;49381;49.338;8.794;2022-12-29T09:26:08;99671.31;;;12.50
63158;BMP280;49381;49.338;8.794;2022-12-29T09:28:10;99678.06;;;12.51
63158;BMP280;49381;49.338;8.794;2022-12-29T09:30:12;99680.59;;;12.54
63158;BMP280;49381;49.338;8.794;2022-12-29T09:32:14;99674.59;;;12.57
63158;BMP280;49381;49.338;8.794;2022-12-29T09:34:14;99678.88;;;12.55
63158;BMP280;49381;49.338;8.794;2022-12-29T09:36:15;99678.00;;;12.58
63158;BMP280;49381;49.338;8.794;2022-12-29T09:38:15;99674.59;;;12.57
63158;BMP280;49381;49.338;8.794;2022-12-29T09:40:24;99680.53;;;12.56
63158;BMP280;49381;49.338;8.794;2022-12-29T09:42:27;99677.19;;;12.55
63158;BMP280;49381;49.338;8.794;2022-12-29T09:44:42;99686.47;;;12.55
63158;BMP280;49381;49.338;8.794;2022-12-29T09:46:48;99684.00;;;12.53
63158;BMP280;49381;49.338;8.794;2022-12-29T09:49:00;99682.25;;;12.56
63158;BMP280;49381;49.338;8.794;2022-12-29T09:51:10;99692.38;;;12.59
63158;BMP280;49381;49.338;8.794;2022-12-29T09:53:17;99700.94;;;12.54
63158;BMP280;49381;49.338;8.794;2022-12-29T09:55:21;99700.06;;;12.55
63158;BMP280;49381;49.338;8.794;2022-12-29T09:57:25;99694.09;;;12.58
63158;BMP280;49381;49.338;8.794;2022-12-29T09:59:36;99683.91;;;12.57
63158;BMP280;49381;49.338;8.794;2022-12-29T10:01:46;99714.44;;;12.55
63158;BMP280;49381;49.338;8.794;2022-12-29T10:03:52;99704.25;;;12.58
63158;BMP280;49381;49.338;8.794;2022-12-29T10:05:58;99700.03;;;12.56
63158;BMP280;49381;49.338;8.794;2022-12-29T10:08:10;99705.94;;;12.59
63158;BMP280;49381;49.338;8.794;2022-12-29T10:10:25;99710.16;;;12.60
63158;BMP280;49381;49.338;8.794;2022-12-29T10:12:37;99716.03;;;12.62
63158;BMP280;49381;49.338;8.794;2022-12-29T10:14:58;99701.66;;;12.61
63158;BMP280;49381;49.338;8.794;2022-12-29T10:17:11;99709.28;;;12.61
63158;BMP280;49381;49.338;8.794;2022-12-29T10:19:26;99712.78;;;12.52
63158;BMP280;49381;49.338;8.794;2022-12-29T10:21:37;99722.88;;;12.57
63158;BMP280;49381;49.338;8.794;2022-12-29T10:23:42;99715.22;;;12.63
63158;BMP280;49381;49.338;8.794;2022-12-29T10:28:34;99714.34;;;12.64
63158;BMP280;49381;49.338;8.794;2022-12-29T10:30:35;99713.47;;;12.68
63158;BMP280;49381;49.338;8.794;2022-12-29T10:32:38;99727.00;;;12.69
63158;BMP280;49381;49.338;8.794;2022-12-29T10:34:45;99730.41;;;12.71
63158;BMP280;49381;49.338;8.794;2022-12-29T10:36:48;99714.28;;;12.72
63158;BMP280;49381;49.338;8.794;2022-12-29T10:39:02;99715.97;;;12.70
63158;BMP280;49381;49.338;8.794;2022-12-29T10:41:10;99713.50;;;12.64
63158;BMP280;49381;49.338;8.794;2022-12-29T10:43:47;99715.97;;;12.70
63158;BMP280;49381;49.338;8.794;2022-12-29T10:45:52;99715.22;;;12.62
63158;BMP280;49381;49.338;8.794;2022-12-29T10:47:58;99721.09;;;12.68
63158;BMP280;49381;49.338;8.794;2022-12-29T10:50:05;99719.38;;;12.67
63158;BMP280;49381;49.338;8.794;2022-12-29T10:52:06;99714.28;;;12.70
63158;BMP280;49381;49.338;8.794;2022-12-29T10:54:13;99712.59;;;12.69
63158;BMP280;49381;49.338;8.794;2022-12-29T10:56:31;99711.72;;;12.75
63158;BMP280;49381;49.338;8.794;2022-12-29T10:58:35;99710.91;;;12.71
63158;BMP280;49381;49.338;8.794;2022-12-29T11:00:36;99706.72;;;12.64
63158;BMP280;49381;49.338;8.794;2022-12-29T11:02:48;99707.59;;;12.63
63158;BMP280;49381;49.338;8.794;2022-12-29T11:04:55;99713.50;;;12.62
63158;BMP280;49381;49.338;8.794;2022-12-29T11:06:59;99728.03;;;12.52
63158;BMP280;49381;49.338;8.794;2022-12-29T11:09:02;99734.75;;;12.58
63158;BMP280;49381;49.338;8.794;2022-12-29T11:11:09;99721.22;;;12.56
63158;BMP280;49381;49.338;8.794;2022-12-29T11:13:12;99712.69;;;12.60
63158;BMP280;49381;49.338;8.794;2022-12-29T11:15:14;99720.28;;;12.62
63158;BMP280;49381;49.338;8.794;2022-12-29T11:17:16;99715.16;;;12.66
63158;BMP280;49381;49.338;8.794;2022-12-29T11:19:21;99714.28;;;12.70
63158;BMP280;49381;49.338;8.794;2022-12-29T11:21:30;99719.41;;;12.66
63158;BMP280;49381;49.338;8.794;2022-12-29T11:23:35;99716.88;;;12.66
63158;BMP280;49381;49.338;8.794;2022-12-29T11:25:35;99722.69;;;12.77
63158;BMP280;49381;49.338;8.794;2022-12-29T11:27:36;99722.75;;;12.74
63158;BMP280;49381;49.338;8.794;2022-12-29T11:29:37;99728.56;;;12.81
63158;BMP280;49381;49.338;8.794;2022-12-29T11:31:40;99731.16;;;12.79
63158;BMP280;49381;49.338;8.794;2022-12-29T11:33:41;99732.75;;;12.85
63158;BMP280;49381;49.338;8.794;2022-12-29T11:35:43;99734.50;;;12.83
63158;BMP280;49381;49.338;8.794;2022-12-29T11:37:43;99737.81;;;12.90
63158;BMP280;49381;49.338;8.794;2022-12-29T11:39:50;99724.28;;;12.88
63158;BMP280;49381;49.338;8.794;2022-12-29T11:41:53;99729.41;;;12.83
63158;BMP280;49381;49.338;8.794;2022-12-29T11:43:55;99724.19;;;12.92
63158;BMP280;49381;49.338;8.794;2022-12-29T11:45:57;99724.97;;;12.97
63158;BMP280;49381;49.338;8.794;2022-12-29T11:47:59;99723.50;;;12.83
63158;BMP280;49381;49.338;8.794;2022-12-29T11:50:03;99729.22;;;12.97
63158;BMP280;49381;49.338;8.794;2022-12-29T11:52:06;99720.75;;;12.98
63158;BMP280;49381;49.338;8.794;2022-12-29T11:54:16;99713.09;;;12.99